createdAt,value
2019-02-23T00:01:33.787Z,-1.64
2019-02-23T00:04:05.439Z,-1.92
2019-02-23T00:06:37.043Z,-1.94
2019-02-23T00:09:08.671Z,-1.83
2019-02-23T00:11:40.798Z,-1.76
2019-02-23T00:14:12.403Z,-1.82
2019-02-23T00:16:44.003Z,-1.98
2019-02-23T00:19:24.542Z,-1.64
2019-02-23T00:21:48.967Z,-1.59
2019-02-23T00:24:20.549Z,-1.52
2019-02-23T00:26:52.176Z,-1.60
2019-02-23T00:29:24.290Z,-1.50
2019-02-23T00:31:55.832Z,-1.49
2019-02-23T00:34:27.375Z,-1.52
2019-02-23T00:36:59.041Z,-1.82
2019-02-23T00:39:30.663Z,-1.89
2019-02-23T00:42:02.770Z,-1.89
2019-02-23T00:44:34.877Z,-1.68
2019-02-23T00:47:06.491Z,-1.44
2019-02-23T00:49:38.135Z,-1.32
2019-02-23T00:52:09.742Z,-1.62
2019-02-23T00:54:41.360Z,-1.63
2019-02-23T00:57:12.967Z,-1.54
2019-02-23T00:59:44.570Z,-1.55
2019-02-23T01:02:16.237Z,-1.56
2019-02-23T01:04:47.836Z,-1.77
2019-02-23T01:07:19.425Z,-1.79
2019-02-23T01:09:51.092Z,-1.49
2019-02-23T01:12:22.829Z,-1.44
2019-02-23T01:14:54.390Z,-1.42
2019-02-23T01:17:26.195Z,-1.45
2019-02-23T01:19:58.851Z,-1.78
2019-02-23T01:22:30.462Z,-2.16
2019-02-23T01:25:02.145Z,-2.20
2019-02-23T01:27:33.780Z,-2.23
2019-02-23T01:30:09.250Z,-2.24
2019-02-23T01:32:40.793Z,-2.26
2019-02-23T01:35:12.467Z,-2.25
2019-02-23T01:37:44.004Z,-2.02
2019-02-23T01:40:15.879Z,-1.82
2019-02-23T01:42:47.416Z,-1.71
2019-02-23T01:45:19.579Z,-1.57
2019-02-23T01:47:51.122Z,-1.70
2019-02-23T01:50:22.807Z,-1.94
2019-02-23T01:52:54.406Z,-2.08
2019-02-23T01:55:25.963Z,-1.99
2019-02-23T01:57:58.079Z,-2.10
2019-02-23T02:00:30.054Z,-1.94
2019-02-23T02:03:01.746Z,-1.90
2019-02-23T02:05:33.351Z,-1.99
2019-02-23T02:08:04.940Z,-1.85
2019-02-23T02:10:36.540Z,-1.73
2019-02-23T02:13:08.132Z,-1.68
2019-02-23T02:15:40.670Z,-1.70
2019-02-23T02:18:12.284Z,-1.74
2019-02-23T02:20:43.817Z,-1.79
2019-02-23T02:23:15.426Z,-1.81
2019-02-23T02:25:46.960Z,-1.56
2019-02-23T02:28:18.471Z,-1.72
2019-02-23T02:30:50.121Z,-1.70
2019-02-23T02:33:22.277Z,-1.79
2019-02-23T02:35:53.973Z,-1.58
2019-02-23T02:38:25.642Z,-1.54
2019-02-23T02:40:57.200Z,-1.75
2019-02-23T02:43:28.748Z,-1.68
2019-02-23T02:46:00.416Z,-1.70
2019-02-23T02:48:32.508Z,-1.61
2019-02-23T02:51:04.133Z,-1.77
2019-02-23T02:53:35.737Z,-1.78
2019-02-23T02:56:07.454Z,-1.65
2019-02-23T02:58:38.999Z,-1.99
2019-02-23T03:01:10.574Z,-2.25
2019-02-23T03:03:42.215Z,-2.38
2019-02-23T03:06:13.818Z,-2.51
2019-02-23T03:08:45.429Z,-2.62
2019-02-23T03:11:19.833Z,-2.35
2019-02-23T03:13:51.438Z,-2.29
2019-02-23T03:16:22.960Z,-2.08
2019-02-23T03:18:54.501Z,-2.34
2019-02-23T03:21:26.043Z,-2.42
2019-02-23T03:23:57.835Z,-2.37
2019-02-23T03:26:29.461Z,-2.65
2019-02-23T03:29:01.467Z,-2.79
2019-02-23T03:31:33.075Z,-2.46
2019-02-23T03:34:04.653Z,-2.40
2019-02-23T03:36:36.330Z,-2.13
2019-02-23T03:39:08.006Z,-2.13
2019-02-23T03:41:39.680Z,-2.24
2019-02-23T03:44:11.227Z,-2.17
2019-02-23T03:46:42.754Z,-2.02
2019-02-23T03:49:14.889Z,-1.96
2019-02-23T03:51:46.421Z,-2.01
2019-02-23T03:54:17.999Z,-2.32
2019-02-23T03:56:49.675Z,-2.55
2019-02-23T03:59:21.355Z,-2.31
2019-02-23T04:01:52.965Z,-2.06
2019-02-23T04:04:24.552Z,-2.10
2019-02-23T04:06:56.124Z,-2.02
2019-02-23T04:09:27.813Z,-1.87
2019-02-23T04:11:59.423Z,-2.11
2019-02-23T04:14:31.000Z,-2.26
2019-02-23T04:17:02.549Z,-2.25
2019-02-23T04:19:34.130Z,-2.17
2019-02-23T04:22:05.742Z,-2.13
2019-02-23T04:24:37.260Z,-1.88
2019-02-23T04:27:08.799Z,-1.77
2019-02-23T04:29:40.818Z,-1.86
2019-02-23T04:32:12.418Z,-1.63
2019-02-23T04:34:43.922Z,-1.89
2019-02-23T04:37:15.589Z,-2.12
2019-02-23T04:39:47.200Z,-2.24
2019-02-23T04:42:18.829Z,-2.35
2019-02-23T04:44:50.947Z,-2.45
2019-02-23T04:47:22.548Z,-2.64
2019-02-23T04:49:55.665Z,-2.37
2019-02-23T04:52:27.184Z,-2.32
2019-02-23T04:54:58.937Z,-1.85
2019-02-23T04:57:30.685Z,-1.77
2019-02-23T05:00:02.780Z,-1.83
2019-02-23T05:02:35.560Z,-1.83
2019-02-23T05:05:08.103Z,-1.83
2019-02-23T05:07:39.660Z,-1.87
2019-02-23T05:10:11.258Z,-1.66
2019-02-23T05:12:42.969Z,-1.78
2019-02-23T05:15:15.006Z,-1.72
2019-02-23T05:17:46.544Z,-1.59
2019-02-23T05:20:18.138Z,-1.55
2019-02-23T05:22:49.826Z,-1.69
2019-02-23T05:25:21.441Z,-1.81
2019-02-23T05:27:53.010Z,-2.07
2019-02-23T05:30:25.071Z,-2.12
2019-02-23T05:32:56.849Z,-2.28
2019-02-23T05:35:28.505Z,-2.25
2019-02-23T05:38:00.122Z,-2.33
2019-02-23T05:40:31.643Z,-2.21
2019-02-23T05:43:03.159Z,-2.34
2019-02-23T05:45:35.138Z,-2.10
2019-02-23T05:48:06.774Z,-2.22
2019-02-23T05:50:38.386Z,-2.32
2019-02-23T05:53:09.988Z,-2.22
2019-02-23T05:55:41.583Z,-1.99
2019-02-23T05:58:13.136Z,-2.00
2019-02-23T06:00:44.943Z,-1.82
2019-02-23T06:03:16.535Z,-1.82
2019-02-23T06:05:48.049Z,-1.71
2019-02-23T06:08:19.638Z,-1.88
2019-02-23T06:10:51.296Z,-1.90
2019-02-23T06:13:22.973Z,-1.78
2019-02-23T06:15:54.800Z,-1.59
2019-02-23T06:18:26.425Z,-1.46
2019-02-23T06:20:57.979Z,-1.28
2019-02-23T06:23:30.109Z,-1.44
2019-02-23T06:26:01.723Z,-1.60
2019-02-23T06:28:33.278Z,-1.79
2019-02-23T06:31:04.855Z,-1.80
2019-02-23T06:33:36.525Z,-1.79
2019-02-23T06:36:08.189Z,-1.77
2019-02-23T06:38:39.949Z,-1.48
2019-02-23T06:41:11.478Z,-1.07
2019-02-23T06:43:43.068Z,-0.97
2019-02-23T06:46:14.606Z,-0.96
2019-02-23T06:48:46.138Z,-0.60
2019-02-23T06:51:17.673Z,-0.51
2019-02-23T06:53:49.277Z,-0.57
2019-02-23T06:56:20.966Z,-0.87
2019-02-23T06:58:52.642Z,-0.94
2019-02-23T07:01:24.206Z,-0.70
2019-02-23T07:03:55.764Z,-0.47
2019-02-23T07:06:27.344Z,-0.45
2019-02-23T07:08:58.892Z,-0.29
2019-02-23T07:11:30.498Z,-0.22
2019-02-23T07:14:02.140Z,-0.16
2019-02-23T07:16:33.780Z,0.01
2019-02-23T07:19:05.393Z,0.16
2019-02-23T07:21:37.029Z,0.24
2019-02-23T07:24:08.779Z,0.41
2019-02-23T07:26:43.120Z,0.51
2019-02-23T07:29:14.718Z,0.69
2019-02-23T07:31:46.311Z,0.65
2019-02-23T07:34:17.837Z,0.65
2019-02-23T07:36:49.446Z,0.64
2019-02-23T07:39:21.136Z,0.68
2019-02-23T07:41:52.757Z,0.72
2019-02-23T07:44:24.307Z,0.63
2019-02-23T07:46:55.820Z,0.63
2019-02-23T07:49:27.357Z,0.58
2019-02-23T07:51:59.548Z,0.55
2019-02-23T07:54:31.126Z,0.59
2019-02-23T07:57:02.815Z,0.71
2019-02-23T07:59:34.459Z,0.88
2019-02-23T08:02:06.225Z,0.93
2019-02-23T08:04:37.829Z,1.10
2019-02-23T08:07:09.369Z,1.17
2019-02-23T08:09:42.060Z,1.19
2019-02-23T08:12:13.766Z,1.16
2019-02-23T08:14:46.472Z,1.35
2019-02-23T08:17:18.226Z,1.44
2019-02-23T08:19:50.801Z,1.51
2019-02-23T08:22:22.512Z,1.70
2019-02-23T08:24:54.152Z,1.71
2019-02-23T08:27:25.679Z,1.79
2019-02-23T08:29:57.251Z,1.77
2019-02-23T08:32:28.857Z,1.64
2019-02-23T08:35:00.525Z,1.70
2019-02-23T08:37:32.184Z,1.74
2019-02-23T08:40:06.454Z,1.61
2019-02-23T08:42:38.101Z,1.76
2019-02-23T08:45:10.669Z,1.94
2019-02-23T08:47:42.232Z,2.21
2019-02-23T08:50:16.871Z,2.25
2019-02-23T08:52:50.193Z,2.31
2019-02-23T08:55:21.807Z,2.42
2019-02-23T08:57:54.008Z,2.54
2019-02-23T09:00:25.604Z,2.75
2019-02-23T09:02:57.236Z,2.75
2019-02-23T09:05:28.966Z,2.77
2019-02-23T09:08:00.720Z,2.96
2019-02-23T09:10:32.284Z,2.97
2019-02-23T09:13:03.839Z,2.72
2019-02-23T09:15:35.431Z,2.73
2019-02-23T09:18:07.019Z,2.63
2019-02-23T09:20:38.520Z,2.69
2019-02-23T09:23:10.277Z,2.88
2019-02-23T09:25:41.879Z,2.93
2019-02-23T09:28:13.417Z,2.96
2019-02-23T09:30:45.018Z,2.87
2019-02-23T09:33:16.543Z,2.93
2019-02-23T09:35:48.118Z,2.95
2019-02-23T09:38:19.648Z,3.08
2019-02-23T09:40:51.201Z,2.90
2019-02-23T09:43:22.808Z,2.85
2019-02-23T09:45:55.489Z,2.90
2019-02-23T09:48:27.019Z,2.86
2019-02-23T09:50:58.598Z,2.88
2019-02-23T09:53:30.136Z,2.96
2019-02-23T09:56:01.676Z,3.11
2019-02-23T09:58:33.262Z,3.10
2019-02-23T10:01:04.795Z,3.24
2019-02-23T10:03:36.300Z,3.31
2019-02-23T10:06:07.871Z,3.28
2019-02-23T10:08:39.517Z,3.44
2019-02-23T10:11:11.139Z,3.38
2019-02-23T10:13:42.821Z,3.40
2019-02-23T10:16:14.350Z,3.35
2019-02-23T10:18:47.014Z,3.33
2019-02-23T10:21:18.598Z,3.43
2019-02-23T10:23:50.198Z,3.67
2019-02-23T10:26:21.711Z,3.38
2019-02-23T10:28:53.354Z,3.52
2019-02-23T10:31:24.898Z,3.61
2019-02-23T10:33:56.592Z,3.51
2019-02-23T10:36:28.187Z,3.43
2019-02-23T10:38:59.958Z,3.63
2019-02-23T10:41:31.653Z,3.70
2019-02-23T10:44:03.202Z,3.61
2019-02-23T10:46:35.242Z,3.61
2019-02-23T10:49:06.907Z,3.64
2019-02-23T10:51:40.300Z,3.58
2019-02-23T10:54:11.849Z,3.66
2019-02-23T10:56:43.456Z,3.93
2019-02-23T10:59:16.254Z,4.02
2019-02-23T11:01:47.861Z,4.03
2019-02-23T11:04:20.581Z,3.80
2019-02-23T11:06:54.393Z,3.59
2019-02-23T11:09:30.447Z,3.62
2019-02-23T11:12:02.147Z,3.85
2019-02-23T11:14:33.691Z,3.91
2019-02-23T11:17:05.213Z,3.76
2019-02-23T11:19:36.816Z,3.67
2019-02-23T11:22:09.490Z,3.61
2019-02-23T11:24:41.126Z,4.01
2019-02-23T11:27:13.043Z,4.11
2019-02-23T11:29:44.680Z,4.12
2019-02-23T11:32:16.286Z,4.16
2019-02-23T11:34:47.807Z,3.82
2019-02-23T11:37:19.334Z,3.73
2019-02-23T11:39:50.841Z,3.56
2019-02-23T11:42:22.406Z,3.47
2019-02-23T11:44:53.961Z,3.79
2019-02-23T11:47:26.096Z,3.65
2019-02-23T11:49:57.726Z,3.67
2019-02-23T11:52:29.305Z,3.73
2019-02-23T11:55:00.864Z,3.80
2019-02-23T11:57:32.530Z,3.90
2019-02-23T12:00:07.380Z,4.13
2019-02-23T12:02:39.478Z,4.11
2019-02-23T12:05:11.756Z,4.10
2019-02-23T12:07:43.384Z,3.89
2019-02-23T12:10:16.684Z,4.02
2019-02-23T12:12:48.562Z,4.11
2019-02-23T12:15:20.113Z,4.09
2019-02-23T12:17:52.134Z,4.17
2019-02-23T12:20:23.656Z,4.16
2019-02-23T12:22:55.327Z,4.12
2019-02-23T12:25:26.977Z,4.13
2019-02-23T12:27:58.536Z,4.15
2019-02-23T12:30:32.874Z,4.36
2019-02-23T12:33:04.708Z,4.02
2019-02-23T12:35:36.438Z,4.23
2019-02-23T12:38:08.105Z,4.18
2019-02-23T12:40:39.782Z,4.35
2019-02-23T12:43:11.363Z,4.65
2019-02-23T12:45:43.118Z,4.61
2019-02-23T12:48:15.220Z,4.47
2019-02-23T12:50:47.388Z,4.36
2019-02-23T12:53:19.506Z,4.37
2019-02-23T12:55:51.228Z,3.97
2019-02-23T12:58:22.889Z,3.80
2019-02-23T13:00:54.533Z,4.10
2019-02-23T13:03:26.306Z,4.18
2019-02-23T13:05:58.062Z,4.23
2019-02-23T13:09:07.597Z,4.36
2019-02-23T13:11:42.869Z,4.63
2019-02-23T13:14:35.080Z,4.79
2019-02-23T13:17:45.923Z,4.85
2019-02-23T13:20:40.404Z,4.72
2019-02-23T13:23:20.513Z,4.57
2019-02-23T13:26:21.299Z,4.58
2019-02-23T13:29:15.548Z,4.73
2019-02-23T13:32:04.862Z,4.80
2019-02-23T13:35:10.150Z,4.80
2019-02-23T13:38:07.583Z,4.56
2019-02-23T13:40:46.927Z,4.60
2019-02-23T13:43:47.315Z,4.58
2019-02-23T13:46:32.629Z,4.58
2019-02-23T13:49:17.322Z,4.38
2019-02-23T13:51:54.321Z,4.28
2019-02-23T13:54:38.894Z,4.61
2019-02-23T13:57:24.059Z,4.77
2019-02-23T14:00:15.197Z,4.82
2019-02-23T14:03:09.489Z,4.67
2019-02-23T14:06:14.586Z,4.50
2019-02-23T14:09:24.242Z,4.54
2019-02-23T14:12:22.882Z,4.66
2019-02-23T14:15:17.339Z,4.79
2019-02-23T14:18:11.974Z,4.90
2019-02-23T14:20:48.526Z,4.90
2019-02-23T14:23:39.936Z,4.81
2019-02-23T14:26:36.256Z,4.71
2019-02-23T14:29:30.110Z,4.56
2019-02-23T14:32:40.661Z,4.58
2019-02-23T14:35:36.960Z,4.70
2019-02-23T14:38:19.148Z,4.67
2019-02-23T14:41:13.353Z,4.90
2019-02-23T14:43:59.119Z,4.96
2019-02-23T14:47:00.204Z,4.95
2019-02-23T14:49:55.055Z,4.94
2019-02-23T14:53:02.693Z,4.80
2019-02-23T14:56:11.024Z,4.80
2019-02-23T14:59:11.547Z,4.83
2019-02-23T15:01:57.163Z,4.81
2019-02-23T15:05:00.234Z,4.78
2019-02-23T15:07:48.461Z,4.77
2019-02-23T15:10:42.915Z,4.63
2019-02-23T15:13:40.503Z,4.68
2019-02-23T15:16:19.609Z,4.67
2019-02-23T15:19:21.211Z,4.67
2019-02-23T15:22:12.576Z,4.65
2019-02-23T15:24:55.079Z,4.60
2019-02-23T15:28:09.523Z,4.79
2019-02-23T15:30:57.640Z,4.85
2019-02-23T15:33:57.951Z,4.87
2019-02-23T15:36:45.833Z,4.86
2019-02-23T15:39:55.946Z,4.81
2019-02-23T15:43:09.821Z,4.79
2019-02-23T15:46:24.751Z,4.77
2019-02-23T15:49:30.564Z,4.80
2019-02-23T15:52:04.119Z,4.81
2019-02-23T15:54:35.628Z,4.71
2019-02-23T15:57:07.334Z,4.67
2019-02-23T15:59:39.506Z,4.67
2019-02-23T16:02:11.384Z,4.51
2019-02-23T16:04:43.117Z,4.50
2019-02-23T16:07:14.799Z,4.49
2019-02-23T16:09:46.363Z,4.45
2019-02-23T16:12:17.888Z,4.42
2019-02-23T16:14:50.575Z,4.32
2019-02-23T16:17:22.717Z,4.11
2019-02-23T16:19:54.352Z,4.14
2019-02-23T16:22:26.106Z,4.13
2019-02-23T16:24:57.735Z,4.02
2019-02-23T16:27:29.285Z,3.93
2019-02-23T16:30:00.975Z,3.84
2019-02-23T16:32:32.773Z,3.85
2019-02-23T16:35:05.508Z,3.80
2019-02-23T16:37:37.236Z,3.70
2019-02-23T16:40:09.234Z,3.65
2019-02-23T16:42:40.907Z,3.58
2019-02-23T16:45:12.422Z,3.57
2019-02-23T16:47:44.085Z,3.52
2019-02-23T16:50:15.842Z,3.60
2019-02-23T16:52:47.517Z,3.50
2019-02-23T16:55:19.128Z,3.43
2019-02-23T16:57:52.448Z,3.47
2019-02-23T17:00:24.050Z,3.42
2019-02-23T17:02:55.590Z,3.38
2019-02-23T17:05:27.110Z,3.29
2019-02-23T17:07:59.010Z,3.33
2019-02-23T17:10:30.704Z,3.37
2019-02-23T17:13:02.240Z,3.47
2019-02-23T17:15:34.346Z,3.43
2019-02-23T17:18:07.111Z,3.34
2019-02-23T17:20:38.701Z,3.35
2019-02-23T17:23:10.458Z,3.25
2019-02-23T17:25:42.155Z,3.29
2019-02-23T17:28:14.667Z,3.32
2019-02-23T17:30:46.283Z,3.21
2019-02-23T17:33:17.953Z,3.28
2019-02-23T17:35:49.898Z,3.36
2019-02-23T17:38:21.566Z,3.21
2019-02-23T17:40:53.167Z,3.17
2019-02-23T17:43:24.760Z,3.10
2019-02-23T17:45:58.163Z,3.06
2019-02-23T17:51:01.416Z,3.09
2019-02-23T17:53:33.202Z,3.05
2019-02-23T17:56:12.072Z,2.96
2019-02-23T17:58:38.289Z,2.99
2019-02-23T18:01:10.396Z,2.99
2019-02-23T18:03:42.195Z,2.87
2019-02-23T18:06:13.871Z,2.96
2019-02-23T18:08:48.674Z,2.96
2019-02-23T18:11:20.391Z,2.83
2019-02-23T18:13:53.135Z,2.98
2019-02-23T18:16:24.809Z,2.98
2019-02-23T18:18:57.608Z,2.97
2019-02-23T18:21:29.614Z,2.96
2019-02-23T18:24:02.232Z,3.06
2019-02-23T18:26:33.911Z,2.99
2019-02-23T18:29:05.537Z,2.98
2019-02-23T18:31:38.251Z,3.06
2019-02-23T18:34:09.894Z,2.80
2019-02-23T18:36:41.654Z,2.78
2019-02-23T18:39:13.194Z,2.75
2019-02-23T18:41:44.882Z,2.66
2019-02-23T18:44:16.494Z,2.76
2019-02-23T18:46:48.173Z,2.84
2019-02-23T18:49:19.821Z,2.84
2019-02-23T18:51:51.470Z,2.85
2019-02-23T18:54:23.229Z,2.81
2019-02-23T18:56:54.898Z,2.68
2019-02-23T18:59:26.583Z,2.70
2019-02-23T19:01:58.761Z,2.84
2019-02-23T19:04:30.302Z,2.65
2019-02-23T19:07:01.892Z,2.64
2019-02-23T19:09:33.585Z,2.72
2019-02-23T19:12:05.125Z,2.66
2019-02-23T19:14:36.739Z,2.51
2019-02-23T19:17:08.759Z,2.47
2019-02-23T19:19:40.457Z,2.40
2019-02-23T19:22:12.066Z,2.46
2019-02-23T19:24:46.171Z,2.42
2019-02-23T19:27:17.961Z,2.37
2019-02-23T19:29:49.470Z,2.50
2019-02-23T19:32:21.700Z,2.47
2019-02-23T19:34:53.490Z,2.63
2019-02-23T19:37:25.087Z,2.65
2019-02-23T19:39:56.701Z,2.57
2019-02-23T19:42:28.526Z,2.50
2019-02-23T19:45:00.057Z,2.43
2019-02-23T19:47:32.581Z,2.35
2019-02-23T19:50:10.102Z,2.37
2019-02-23T19:52:41.711Z,2.41
2019-02-23T19:55:16.773Z,2.48
2019-02-23T19:57:48.364Z,2.38
2019-02-23T20:00:20.022Z,2.24
2019-02-23T20:02:51.918Z,2.27
2019-02-23T20:05:23.454Z,2.25
2019-02-23T20:07:55.165Z,2.28
2019-02-23T20:10:26.852Z,2.32
2019-02-23T20:12:58.586Z,2.28
2019-02-23T20:15:30.185Z,2.28
2019-02-23T20:18:03.456Z,2.25
2019-02-23T20:20:35.290Z,2.14
2019-02-23T20:23:10.883Z,2.20
2019-02-23T20:25:43.491Z,2.22
2019-02-23T20:28:15.176Z,2.28
2019-02-23T20:30:46.715Z,2.13
2019-02-23T20:33:19.080Z,1.97
2019-02-23T20:35:50.896Z,1.98
2019-02-23T20:38:22.610Z,2.07
2019-02-23T20:40:55.281Z,2.10
2019-02-23T20:43:26.906Z,2.04
2019-02-23T20:45:58.449Z,2.14
2019-02-23T20:48:30.059Z,2.09
2019-02-23T20:51:01.912Z,2.16
2019-02-23T20:53:33.555Z,2.12
2019-02-23T20:56:05.226Z,2.14
2019-02-23T20:58:36.907Z,2.15
2019-02-23T21:01:08.539Z,2.18
2019-02-23T21:03:40.289Z,2.23
2019-02-23T21:06:11.923Z,2.27
2019-02-23T21:08:43.613Z,2.23
2019-02-23T21:11:15.268Z,2.21
2019-02-23T21:13:46.857Z,2.22
2019-02-23T21:16:18.544Z,2.21
2019-02-23T21:18:50.206Z,2.26
2019-02-23T21:21:21.833Z,2.20
2019-02-23T21:23:53.491Z,2.28
2019-02-23T21:26:25.087Z,2.27
2019-02-23T21:28:56.844Z,2.24
2019-02-23T21:31:28.448Z,2.24
2019-02-23T21:33:59.954Z,2.20
2019-02-23T21:36:31.634Z,2.28
2019-02-23T21:39:03.800Z,2.28
2019-02-23T21:41:36.496Z,2.29
2019-02-23T21:44:08.176Z,2.28
2019-02-23T21:46:39.720Z,2.38
2019-02-23T21:49:11.269Z,2.41
2019-02-23T21:51:42.872Z,2.45
2019-02-23T21:54:14.407Z,2.41
2019-02-23T21:56:46.029Z,2.50
2019-02-23T21:59:17.722Z,2.49
2019-02-23T22:01:52.492Z,2.47
2019-02-23T22:04:24.078Z,2.43
2019-02-23T22:06:55.626Z,2.55
2019-02-23T22:09:28.424Z,2.55
2019-02-23T22:12:00.192Z,2.46
2019-02-23T22:14:31.771Z,2.37
2019-02-23T22:17:03.346Z,2.37
2019-02-23T22:19:34.951Z,2.41
2019-02-23T22:22:06.546Z,2.35
2019-02-23T22:24:38.281Z,2.25
2019-02-23T22:27:13.189Z,2.28
2019-02-23T22:29:44.845Z,2.39
2019-02-23T22:32:16.495Z,2.32
2019-02-23T22:34:48.162Z,2.43
2019-02-23T22:37:19.948Z,2.44
2019-02-23T22:39:51.667Z,2.48
2019-02-23T22:42:23.255Z,2.45
2019-02-23T22:44:54.808Z,2.41
2019-02-23T22:47:28.395Z,2.30
2019-02-23T22:49:59.994Z,2.40
2019-02-23T22:52:31.577Z,2.34
2019-02-23T22:55:03.615Z,2.39
2019-02-23T22:57:40.547Z,2.40
2019-02-23T23:00:14.353Z,2.45
2019-02-23T23:02:47.660Z,2.50
2019-02-23T23:05:19.352Z,2.53
2019-02-23T23:07:51.062Z,2.58
2019-02-23T23:10:22.748Z,2.65
2019-02-23T23:12:54.324Z,2.69
2019-02-23T23:15:25.843Z,2.73
2019-02-23T23:17:57.363Z,2.86
2019-02-23T23:20:28.881Z,2.84
2019-02-23T23:23:00.432Z,2.76
2019-02-23T23:25:32.044Z,2.82
2019-02-23T23:28:03.737Z,2.92
2019-02-23T23:30:35.359Z,2.82
2019-02-23T23:33:07.040Z,2.82
2019-02-23T23:35:38.679Z,2.84
2019-02-23T23:38:10.242Z,2.78
2019-02-23T23:40:41.774Z,2.78
2019-02-23T23:43:13.365Z,2.53
2019-02-23T23:45:44.915Z,2.71
2019-02-23T23:48:16.470Z,2.78
2019-02-23T23:50:48.013Z,2.86
2019-02-23T23:53:19.678Z,2.89
2019-02-23T23:55:51.176Z,2.98
2019-02-23T23:58:22.731Z,2.97
